sensor_id;sensor_type;location;lat;lon;timestamp;temperature;humidity
21280;DHT22;11764;43.100;25.716;2022-08-19T00:02:21;25.60;99.90
21280;DHT22;11764;43.100;25.716;2022-08-19T00:04:46;25.40;99.90
21280;DHT22;11764;43.100;25.716;2022-08-19T00:07:15;25.40;99.90
21280;DHT22;11764;43.100;25.716;2022-08-19T00:09:41;25.20;99.90
21280;DHT22;11764;43.100;25.716;2022-08-19T00:12:06;25.10;99.90
21280;DHT22;11764;43.100;25.716;2022-08-19T00:14:32;25.00;99.90
21280;DHT22;11764;43.100;25.716;2022-08-19T00:16:58;25.10;99.90
21280;DHT22;11764;43.100;25.716;2022-08-19T00:19:24;25.20;99.90
21280;DHT22;11764;43.100;25.716;2022-08-19T00:21:50;25.40;99.90
21280;DHT22;11764;43.100;25.716;2022-08-19T00:24:16;25.50;99.90
21280;DHT22;11764;43.100;25.716;2022-08-19T00:26:42;25.60;99.90
21280;DHT22;11764;43.100;25.716;2022-08-19T00:29:09;25.70;99.90
21280;DHT22;11764;43.100;25.716;2022-08-19T00:31:35;25.70;99.90
21280;DHT22;11764;43.100;25.716;2022-08-19T00:34:01;25.80;99.90
21280;DHT22;11764;43.100;25.716;2022-08-19T00:36:26;25.80;99.90
21280;DHT22;11764;43.100;25.716;2022-08-19T00:38:53;25.90;99.90
21280;DHT22;11764;43.100;25.716;2022-08-19T00:41:20;25.90;99.90
21280;DHT22;11764;43.100;25.716;2022-08-19T00:46:24;25.80;99.90
21280;DHT22;11764;43.100;25.716;2022-08-19T00:48:50;25.70;99.90
21280;DHT22;11764;43.100;25.716;2022-08-19T00:51:15;25.70;99.90
21280;DHT22;11764;43.100;25.716;2022-08-19T00:53:41;25.60;99.90
21280;DHT22;11764;43.100;25.716;2022-08-19T00:56:07;25.50;99.90
21280;DHT22;11764;43.100;25.716;2022-08-19T00:58:34;25.40;99.90
21280;DHT22;11764;43.100;25.716;2022-08-19T01:01:00;25.40;99.90
21280;DHT22;11764;43.100;25.716;2022-08-19T01:03:26;25.40;99.90
21280;DHT22;11764;43.100;25.716;2022-08-19T01:05:51;25.40;99.90
21280;DHT22;11764;43.100;25.716;2022-08-19T01:08:18;25.40;99.90
21280;DHT22;11764;43.100;25.716;2022-08-19T01:10:45;25.30;99.90
21280;DHT22;11764;43.100;25.716;2022-08-19T01:13:13;25.30;99.90
21280;DHT22;11764;43.100;25.716;2022-08-19T01:15:43;25.30;99.90
21280;DHT22;11764;43.100;25.716;2022-08-19T01:18:11;25.30;99.90
21280;DHT22;11764;43.100;25.716;2022-08-19T01:20:37;25.20;99.90
21280;DHT22;11764;43.100;25.716;2022-08-19T01:23:04;25.20;99.90
21280;DHT22;11764;43.100;25.716;2022-08-19T01:25:35;25.20;99.90
21280;DHT22;11764;43.100;25.716;2022-08-19T01:28:02;25.20;99.90
21280;DHT22;11764;43.100;25.716;2022-08-19T01:30:29;25.10;99.90
21280;DHT22;11764;43.100;25.716;2022-08-19T01:32:55;25.00;99.90
21280;DHT22;11764;43.100;25.716;2022-08-19T01:35:22;24.90;99.90
21280;DHT22;11764;43.100;25.716;2022-08-19T01:37:56;24.90;99.90
21280;DHT22;11764;43.100;25.716;2022-08-19T01:40:23;25.00;99.90
21280;DHT22;11764;43.100;25.716;2022-08-19T01:42:50;25.00;99.90
21280;DHT22;11764;43.100;25.716;2022-08-19T01:45:17;25.00;99.90
21280;DHT22;11764;43.100;25.716;2022-08-19T01:47:43;25.10;99.90
21280;DHT22;11764;43.100;25.716;2022-08-19T01:50:09;24.90;99.90
21280;DHT22;11764;43.100;25.716;2022-08-19T01:52:36;25.00;99.90
21280;DHT22;11764;43.100;25.716;2022-08-19T01:55:03;25.10;99.90
21280;DHT22;11764;43.100;25.716;2022-08-19T01:57:28;25.00;99.90
21280;DHT22;11764;43.100;25.716;2022-08-19T01:59:54;25.00;99.90
21280;DHT22;11764;43.100;25.716;2022-08-19T02:02:19;25.00;99.90
21280;DHT22;11764;43.100;25.716;2022-08-19T02:04:45;24.90;99.90
21280;DHT22;11764;43.100;25.716;2022-08-19T02:07:11;25.00;99.90
21280;DHT22;11764;43.100;25.716;2022-08-19T02:09:36;24.90;99.90
21280;DHT22;11764;43.100;25.716;2022-08-19T02:12:03;24.80;99.90
21280;DHT22;11764;43.100;25.716;2022-08-19T02:14:28;24.60;99.90
21280;DHT22;11764;43.100;25.716;2022-08-19T02:16:54;24.50;99.90
21280;DHT22;11764;43.100;25.716;2022-08-19T02:19:19;24.40;99.90
21280;DHT22;11764;43.100;25.716;2022-08-19T02:21:45;24.30;99.90
21280;DHT22;11764;43.100;25.716;2022-08-19T02:24:10;24.20;99.90
21280;DHT22;11764;43.100;25.716;2022-08-19T02:26:37;24.10;99.90
21280;DHT22;11764;43.100;25.716;2022-08-19T02:29:03;24.20;99.90
21280;DHT22;11764;43.100;25.716;2022-08-19T02:31:28;24.20;99.90
21280;DHT22;11764;43.100;25.716;2022-08-19T02:33:55;24.30;99.90
21280;DHT22;11764;43.100;25.716;2022-08-19T02:36:21;24.30;99.90
21280;DHT22;11764;43.100;25.716;2022-08-19T02:38:47;24.30;99.90
21280;DHT22;11764;43.100;25.716;2022-08-19T02:41:17;24.30;99.90
21280;DHT22;11764;43.100;25.716;2022-08-19T02:43:43;24.30;99.90
21280;DHT22;11764;43.100;25.716;2022-08-19T02:46:12;24.30;99.90
21280;DHT22;11764;43.100;25.716;2022-08-19T02:48:38;24.30;99.90
21280;DHT22;11764;43.100;25.716;2022-08-19T02:51:04;24.30;99.90
21280;DHT22;11764;43.100;25.716;2022-08-19T02:53:30;24.30;99.90
21280;DHT22;11764;43.100;25.716;2022-08-19T02:55:56;24.20;99.90
21280;DHT22;11764;43.100;25.716;2022-08-19T02:58:22;24.20;99.90
21280;DHT22;11764;43.100;25.716;2022-08-19T03:00:49;24.10;99.90
21280;DHT22;11764;43.100;25.716;2022-08-19T03:03:15;24.10;99.90
21280;DHT22;11764;43.100;25.716;2022-08-19T03:05:41;23.90;99.90
21280;DHT22;11764;43.100;25.716;2022-08-19T03:08:07;23.90;99.90
21280;DHT22;11764;43.100;25.716;2022-08-19T03:10:39;24.00;99.90
21280;DHT22;11764;43.100;25.716;2022-08-19T03:13:05;23.90;99.90
21280;DHT22;11764;43.100;25.716;2022-08-19T03:15:30;23.70;99.90
21280;DHT22;11764;43.100;25.716;2022-08-19T03:17:56;23.50;99.90
21280;DHT22;11764;43.100;25.716;2022-08-19T03:20:21;23.30;99.90
21280;DHT22;11764;43.100;25.716;2022-08-19T03:22:47;23.20;99.90
21280;DHT22;11764;43.100;25.716;2022-08-19T03:25:12;23.10;99.90
21280;DHT22;11764;43.100;25.716;2022-08-19T03:27:38;23.10;99.90
21280;DHT22;11764;43.100;25.716;2022-08-19T03:30:03;23.10;99.90
21280;DHT22;11764;43.100;25.716;2022-08-19T03:32:29;23.00;99.90
21280;DHT22;11764;43.100;25.716;2022-08-19T03:34:55;23.10;99.90
21280;DHT22;11764;43.100;25.716;2022-08-19T03:37:20;23.20;99.90
21280;DHT22;11764;43.100;25.716;2022-08-19T03:39:47;23.10;99.90
21280;DHT22;11764;43.100;25.716;2022-08-19T03:42:13;23.10;99.90
21280;DHT22;11764;43.100;25.716;2022-08-19T03:44:38;23.20;99.90
21280;DHT22;11764;43.100;25.716;2022-08-19T03:47:04;23.20;99.90
21280;DHT22;11764;43.100;25.716;2022-08-19T03:49:31;23.30;99.90
21280;DHT22;11764;43.100;25.716;2022-08-19T03:51:58;23.40;99.90
21280;DHT22;11764;43.100;25.716;2022-08-19T03:54:26;23.70;99.90
21280;DHT22;11764;43.100;25.716;2022-08-19T03:56:52;23.80;99.90
21280;DHT22;11764;43.100;25.716;2022-08-19T03:59:20;23.80;99.90
21280;DHT22;11764;43.100;25.716;2022-08-19T04:01:46;23.90;99.90
21280;DHT22;11764;43.100;25.716;2022-08-19T04:04:12;24.10;99.90
21280;DHT22;11764;43.100;25.716;2022-08-19T04:06:38;24.10;99.90
21280;DHT22;11764;43.100;25.716;2022-08-19T04:09:05;24.20;99.90
21280;DHT22;11764;43.100;25.716;2022-08-19T04:11:33;24.30;99.90
21280;DHT22;11764;43.100;25.716;2022-08-19T04:14:00;24.50;99.90
21280;DHT22;11764;43.100;25.716;2022-08-19T04:16:26;24.50;99.90
21280;DHT22;11764;43.100;25.716;2022-08-19T04:18:55;24.70;99.90
21280;DHT22;11764;43.100;25.716;2022-08-19T04:21:22;24.70;99.90
21280;DHT22;11764;43.100;25.716;2022-08-19T04:23:48;24.90;99.90
21280;DHT22;11764;43.100;25.716;2022-08-19T04:26:15;25.20;99.90
21280;DHT22;11764;43.100;25.716;2022-08-19T04:28:44;25.40;99.90
21280;DHT22;11764;43.100;25.716;2022-08-19T04:31:14;25.50;99.90
21280;DHT22;11764;43.100;25.716;2022-08-19T04:33:40;25.60;99.90
21280;DHT22;11764;43.100;25.716;2022-08-19T04:36:06;25.70;99.90
21280;DHT22;11764;43.100;25.716;2022-08-19T04:38:31;25.70;99.90
21280;DHT22;11764;43.100;25.716;2022-08-19T04:40:57;25.80;99.90
21280;DHT22;11764;43.100;25.716;2022-08-19T04:43:41;25.90;99.90
21280;DHT22;11764;43.100;25.716;2022-08-19T04:46:11;26.00;99.90
21280;DHT22;11764;43.100;25.716;2022-08-19T04:48:37;26.20;99.90
21280;DHT22;11764;43.100;25.716;2022-08-19T04:51:05;26.30;99.90
21280;DHT22;11764;43.100;25.716;2022-08-19T04:53:32;26.40;99.90
21280;DHT22;11764;43.100;25.716;2022-08-19T04:55:59;26.40;99.90
21280;DHT22;11764;43.100;25.716;2022-08-19T04:58:25;26.50;99.90
21280;DHT22;11764;43.100;25.716;2022-08-19T05:00:51;26.60;99.90
21280;DHT22;11764;43.100;25.716;2022-08-19T05:03:17;26.60;99.90
21280;DHT22;11764;43.100;25.716;2022-08-19T05:05:44;26.70;99.90
21280;DHT22;11764;43.100;25.716;2022-08-19T05:08:11;26.80;99.90
21280;DHT22;11764;43.100;25.716;2022-08-19T05:10:39;26.90;99.90
21280;DHT22;11764;43.100;25.716;2022-08-19T05:13:05;26.90;99.90
21280;DHT22;11764;43.100;25.716;2022-08-19T05:15:31;27.10;99.90
21280;DHT22;11764;43.100;25.716;2022-08-19T05:17:56;27.10;99.90
21280;DHT22;11764;43.100;25.716;2022-08-19T05:20:40;27.20;99.90
21280;DHT22;11764;43.100;25.716;2022-08-19T05:23:24;27.30;99.90
21280;DHT22;11764;43.100;25.716;2022-08-19T05:25:50;27.40;99.90
21280;DHT22;11764;43.100;25.716;2022-08-19T05:28:17;27.20;99.90
21280;DHT22;11764;43.100;25.716;2022-08-19T05:30:43;27.20;99.90
21280;DHT22;11764;43.100;25.716;2022-08-19T05:33:10;27.30;99.90
21280;DHT22;11764;43.100;25.716;2022-08-19T05:35:36;27.30;99.90
21280;DHT22;11764;43.100;25.716;2022-08-19T05:38:02;27.50;99.90
21280;DHT22;11764;43.100;25.716;2022-08-19T05:40:28;27.50;99.90
21280;DHT22;11764;43.100;25.716;2022-08-19T05:42:53;27.50;99.90
21280;DHT22;11764;43.100;25.716;2022-08-19T05:45:19;27.60;99.90
21280;DHT22;11764;43.100;25.716;2022-08-19T05:47:46;27.80;99.90
21280;DHT22;11764;43.100;25.716;2022-08-19T05:50:11;27.80;99.90
21280;DHT22;11764;43.100;25.716;2022-08-19T05:52:38;27.80;99.90
21280;DHT22;11764;43.100;25.716;2022-08-19T05:55:03;27.80;99.90
21280;DHT22;11764;43.100;25.716;2022-08-19T05:57:30;27.80;99.90
21280;DHT22;11764;43.100;25.716;2022-08-19T05:59:56;27.80;99.90
21280;DHT22;11764;43.100;25.716;2022-08-19T06:02:22;27.90;99.90
21280;DHT22;11764;43.100;25.716;2022-08-19T06:04:48;28.00;99.90
21280;DHT22;11764;43.100;25.716;2022-08-19T06:07:14;27.90;99.90
21280;DHT22;11764;43.100;25.716;2022-08-19T06:09:40;27.90;99.90
21280;DHT22;11764;43.100;25.716;2022-08-19T06:12:06;28.00;99.90
21280;DHT22;11764;43.100;25.716;2022-08-19T06:14:32;28.30;99.90
21280;DHT22;11764;43.100;25.716;2022-08-19T06:17:00;28.20;99.90
21280;DHT22;11764;43.100;25.716;2022-08-19T06:19:27;28.20;99.90
21280;DHT22;11764;43.100;25.716;2022-08-19T06:21:54;28.10;99.90
21280;DHT22;11764;43.100;25.716;2022-08-19T06:24:21;28.20;99.90
21280;DHT22;11764;43.100;25.716;2022-08-19T06:26:49;28.30;99.90
21280;DHT22;11764;43.100;25.716;2022-08-19T06:29:16;28.40;99.90
21280;DHT22;11764;43.100;25.716;2022-08-19T06:31:49;28.50;99.90
21280;DHT22;11764;43.100;25.716;2022-08-19T06:34:15;28.60;99.90
21280;DHT22;11764;43.100;25.716;2022-08-19T06:36:43;28.50;99.90
21280;DHT22;11764;43.100;25.716;2022-08-19T06:39:10;28.80;99.90
21280;DHT22;11764;43.100;25.716;2022-08-19T06:41:37;28.70;99.90
21280;DHT22;11764;43.100;25.716;2022-08-19T06:44:03;28.70;99.90
21280;DHT22;11764;43.100;25.716;2022-08-19T06:46:29;28.80;99.90
21280;DHT22;11764;43.100;25.716;2022-08-19T06:48:56;28.80;99.90
21280;DHT22;11764;43.100;25.716;2022-08-19T06:51:21;28.80;99.90
21280;DHT22;11764;43.100;25.716;2022-08-19T06:53:48;29.00;99.90
21280;DHT22;11764;43.100;25.716;2022-08-19T06:56:18;29.10;99.90
21280;DHT22;11764;43.100;25.716;2022-08-19T06:58:44;29.00;99.90
21280;DHT22;11764;43.100;25.716;2022-08-19T07:01:11;29.00;99.90
21280;DHT22;11764;43.100;25.716;2022-08-19T07:03:37;29.10;99.90
21280;DHT22;11764;43.100;25.716;2022-08-19T07:06:08;29.40;99.90
21280;DHT22;11764;43.100;25.716;2022-08-19T07:08:35;29.50;99.90
21280;DHT22;11764;43.100;25.716;2022-08-19T07:11:02;29.70;99.90
21280;DHT22;11764;43.100;25.716;2022-08-19T07:13:28;29.60;99.90
21280;DHT22;11764;43.100;25.716;2022-08-19T07:15:53;29.50;99.90
21280;DHT22;11764;43.100;25.716;2022-08-19T07:18:20;29.50;99.90
21280;DHT22;11764;43.100;25.716;2022-08-19T07:20:46;29.60;99.90
21280;DHT22;11764;43.100;25.716;2022-08-19T07:23:12;29.50;99.90
21280;DHT22;11764;43.100;25.716;2022-08-19T07:25:38;29.70;99.90
21280;DHT22;11764;43.100;25.716;2022-08-19T07:28:04;29.90;99.90
21280;DHT22;11764;43.100;25.716;2022-08-19T07:30:36;29.60;99.90
21280;DHT22;11764;43.100;25.716;2022-08-19T07:33:01;29.70;99.90
21280;DHT22;11764;43.100;25.716;2022-08-19T07:35:27;29.80;99.90
21280;DHT22;11764;43.100;25.716;2022-08-19T07:37:53;30.10;99.90
21280;DHT22;11764;43.100;25.716;2022-08-19T07:40:19;30.20;99.90
21280;DHT22;11764;43.100;25.716;2022-08-19T07:42:44;30.40;99.90
21280;DHT22;11764;43.100;25.716;2022-08-19T07:45:10;30.50;99.90
21280;DHT22;11764;43.100;25.716;2022-08-19T07:47:35;30.40;99.90
21280;DHT22;11764;43.100;25.716;2022-08-19T07:50:02;30.40;99.90
21280;DHT22;11764;43.100;25.716;2022-08-19T07:52:29;30.20;99.90
21280;DHT22;11764;43.100;25.716;2022-08-19T07:54:55;30.40;99.90
21280;DHT22;11764;43.100;25.716;2022-08-19T07:57:20;30.20;99.90
21280;DHT22;11764;43.100;25.716;2022-08-19T07:59:46;30.40;99.90
21280;DHT22;11764;43.100;25.716;2022-08-19T08:02:12;30.50;99.90
21280;DHT22;11764;43.100;25.716;2022-08-19T08:04:37;30.60;99.90
21280;DHT22;11764;43.100;25.716;2022-08-19T08:07:21;30.70;99.90
21280;DHT22;11764;43.100;25.716;2022-08-19T08:10:06;30.90;99.90
21280;DHT22;11764;43.100;25.716;2022-08-19T08:12:36;30.80;99.90
21280;DHT22;11764;43.100;25.716;2022-08-19T08:15:08;30.90;99.90
21280;DHT22;11764;43.100;25.716;2022-08-19T08:17:34;30.70;99.90
21280;DHT22;11764;43.100;25.716;2022-08-19T08:20:03;30.80;99.90
21280;DHT22;11764;43.100;25.716;2022-08-19T08:22:31;30.70;99.90
21280;DHT22;11764;43.100;25.716;2022-08-19T08:25:18;30.70;99.90
21280;DHT22;11764;43.100;25.716;2022-08-19T08:27:45;30.80;99.90
21280;DHT22;11764;43.100;25.716;2022-08-19T08:30:18;30.70;99.90
21280;DHT22;11764;43.100;25.716;2022-08-19T08:32:44;30.90;99.90
21280;DHT22;11764;43.100;25.716;2022-08-19T08:35:11;30.90;99.90
21280;DHT22;11764;43.100;25.716;2022-08-19T08:37:38;30.90;99.90
21280;DHT22;11764;43.100;25.716;2022-08-19T08:42:53;31.00;99.90
21280;DHT22;11764;43.100;25.716;2022-08-19T08:45:20;31.20;99.90
21280;DHT22;11764;43.100;25.716;2022-08-19T08:47:48;31.40;99.90
21280;DHT22;11764;43.100;25.716;2022-08-19T08:50:18;31.40;99.90
21280;DHT22;11764;43.100;25.716;2022-08-19T08:52:45;31.40;99.90
21280;DHT22;11764;43.100;25.716;2022-08-19T08:55:13;31.80;99.90
21280;DHT22;11764;43.100;25.716;2022-08-19T08:57:40;31.80;99.90
21280;DHT22;11764;43.100;25.716;2022-08-19T09:00:10;31.90;99.90
21280;DHT22;11764;43.100;25.716;2022-08-19T09:02:37;32.00;99.90
21280;DHT22;11764;43.100;25.716;2022-08-19T09:05:03;31.90;99.90
21280;DHT22;11764;43.100;25.716;2022-08-19T09:10:24;31.80;99.90
21280;DHT22;11764;43.100;25.716;2022-08-19T09:12:52;31.80;99.90
21280;DHT22;11764;43.100;25.716;2022-08-19T09:15:22;31.80;99.90
21280;DHT22;11764;43.100;25.716;2022-08-19T09:17:52;31.60;99.90
21280;DHT22;11764;43.100;25.716;2022-08-19T09:20:19;31.70;99.90
21280;DHT22;11764;43.100;25.716;2022-08-19T09:22:45;31.80;99.90
21280;DHT22;11764;43.100;25.716;2022-08-19T09:25:13;31.90;99.90
21280;DHT22;11764;43.100;25.716;2022-08-19T09:27:40;32.00;99.90
21280;DHT22;11764;43.100;25.716;2022-08-19T09:30:06;32.10;99.90
21280;DHT22;11764;43.100;25.716;2022-08-19T09:32:32;32.00;99.90
21280;DHT22;11764;43.100;25.716;2022-08-19T09:34:58;32.20;99.90
21280;DHT22;11764;43.100;25.716;2022-08-19T09:37:25;32.20;99.90
21280;DHT22;11764;43.100;25.716;2022-08-19T09:39:51;32.30;99.90
21280;DHT22;11764;43.100;25.716;2022-08-19T09:42:17;32.30;99.90
21280;DHT22;11764;43.100;25.716;2022-08-19T09:44:43;32.30;99.90
21280;DHT22;11764;43.100;25.716;2022-08-19T09:47:09;32.30;99.90
21280;DHT22;11764;43.100;25.716;2022-08-19T09:49:35;32.10;99.90
21280;DHT22;11764;43.100;25.716;2022-08-19T09:52:00;31.70;99.90
21280;DHT22;11764;43.100;25.716;2022-08-19T09:54:26;32.00;99.90
21280;DHT22;11764;43.100;25.716;2022-08-19T09:56:53;32.20;99.90
21280;DHT22;11764;43.100;25.716;2022-08-19T09:59:18;32.30;99.90
21280;DHT22;11764;43.100;25.716;2022-08-19T10:01:44;32.40;99.90
21280;DHT22;11764;43.100;25.716;2022-08-19T10:04:10;32.50;99.90
21280;DHT22;11764;43.100;25.716;2022-08-19T10:06:37;32.70;99.90
21280;DHT22;11764;43.100;25.716;2022-08-19T10:09:03;32.60;99.90
21280;DHT22;11764;43.100;25.716;2022-08-19T10:11:31;32.60;99.90
21280;DHT22;11764;43.100;25.716;2022-08-19T10:13:57;32.80;99.90
21280;DHT22;11764;43.100;25.716;2022-08-19T10:16:23;32.80;99.90
21280;DHT22;11764;43.100;25.716;2022-08-19T10:18:49;33.00;99.90
21280;DHT22;11764;43.100;25.716;2022-08-19T10:21:20;32.80;99.90
21280;DHT22;11764;43.100;25.716;2022-08-19T10:23:47;33.10;99.90
21280;DHT22;11764;43.100;25.716;2022-08-19T10:26:14;33.30;99.90
21280;DHT22;11764;43.100;25.716;2022-08-19T10:28:40;33.10;99.90
21280;DHT22;11764;43.100;25.716;2022-08-19T10:31:07;32.70;99.90
21280;DHT22;11764;43.100;25.716;2022-08-19T10:33:33;32.50;99.90
21280;DHT22;11764;43.100;25.716;2022-08-19T10:36:03;32.70;99.90
21280;DHT22;11764;43.100;25.716;2022-08-19T10:38:29;32.90;99.90
21280;DHT22;11764;43.100;25.716;2022-08-19T10:40:56;33.00;99.90
21280;DHT22;11764;43.100;25.716;2022-08-19T10:43:22;32.80;99.90
21280;DHT22;11764;43.100;25.716;2022-08-19T10:45:54;33.00;99.90
21280;DHT22;11764;43.100;25.716;2022-08-19T10:48:21;33.30;99.90
21280;DHT22;11764;43.100;25.716;2022-08-19T10:50:47;33.30;99.90
21280;DHT22;11764;43.100;25.716;2022-08-19T10:53:31;33.10;99.90
21280;DHT22;11764;43.100;25.716;2022-08-19T10:55:57;33.10;99.90
21280;DHT22;11764;43.100;25.716;2022-08-19T10:58:41;33.40;99.90
21280;DHT22;11764;43.100;25.716;2022-08-19T11:01:06;33.50;99.90
21280;DHT22;11764;43.100;25.716;2022-08-19T11:03:32;33.60;98.80
21280;DHT22;11764;43.100;25.716;2022-08-19T11:05:59;33.80;98.50
21280;DHT22;11764;43.100;25.716;2022-08-19T11:08:25;33.80;96.90
21280;DHT22;11764;43.100;25.716;2022-08-19T11:10:52;34.00;97.00
21280;DHT22;11764;43.100;25.716;2022-08-19T11:13:22;33.70;96.70
21280;DHT22;11764;43.100;25.716;2022-08-19T11:15:56;33.90;97.10
21280;DHT22;11764;43.100;25.716;2022-08-19T11:18:21;34.00;96.70
21280;DHT22;11764;43.100;25.716;2022-08-19T11:20:47;34.00;96.40
21280;DHT22;11764;43.100;25.716;2022-08-19T11:23:12;33.80;96.50
21280;DHT22;11764;43.100;25.716;2022-08-19T11:25:38;33.60;96.30
21280;DHT22;11764;43.100;25.716;2022-08-19T11:28:04;33.50;97.60
21280;DHT22;11764;43.100;25.716;2022-08-19T11:30:30;33.50;97.80
21280;DHT22;11764;43.100;25.716;2022-08-19T11:32:55;33.50;96.60
21280;DHT22;11764;43.100;25.716;2022-08-19T11:35:21;33.70;96.70
21280;DHT22;11764;43.100;25.716;2022-08-19T11:37:48;33.90;96.60
21280;DHT22;11764;43.100;25.716;2022-08-19T11:40:14;34.00;94.80
21280;DHT22;11764;43.100;25.716;2022-08-19T11:42:39;33.50;95.30
21280;DHT22;11764;43.100;25.716;2022-08-19T11:45:21;33.50;94.90
21280;DHT22;11764;43.100;25.716;2022-08-19T11:47:46;33.30;95.60
21280;DHT22;11764;43.100;25.716;2022-08-19T11:50:13;33.50;95.40
21280;DHT22;11764;43.100;25.716;2022-08-19T11:52:38;33.20;95.10
21280;DHT22;11764;43.100;25.716;2022-08-19T11:55:04;33.10;96.00
21280;DHT22;11764;43.100;25.716;2022-08-19T11:57:30;33.10;96.00
21280;DHT22;11764;43.100;25.716;2022-08-19T11:59:56;33.00;96.00
21280;DHT22;11764;43.100;25.716;2022-08-19T12:02:21;33.30;95.90
21280;DHT22;11764;43.100;25.716;2022-08-19T12:04:48;33.50;95.50
21280;DHT22;11764;43.100;25.716;2022-08-19T12:07:14;33.50;95.00
21280;DHT22;11764;43.100;25.716;2022-08-19T12:09:40;33.50;95.30
21280;DHT22;11764;43.100;25.716;2022-08-19T12:12:06;33.60;95.60
21280;DHT22;11764;43.100;25.716;2022-08-19T12:14:31;33.50;95.50
21280;DHT22;11764;43.100;25.716;2022-08-19T12:16:57;33.70;94.90
21280;DHT22;11764;43.100;25.716;2022-08-19T12:19:23;33.90;94.40
21280;DHT22;11764;43.100;25.716;2022-08-19T12:21:50;34.00;93.60
21280;DHT22;11764;43.100;25.716;2022-08-19T12:24:16;34.20;93.30
21280;DHT22;11764;43.100;25.716;2022-08-19T12:26:48;34.20;93.00
21280;DHT22;11764;43.100;25.716;2022-08-19T12:29:13;34.00;92.60
21280;DHT22;11764;43.100;25.716;2022-08-19T12:31:40;34.00;93.50
21280;DHT22;11764;43.100;25.716;2022-08-19T12:34:05;34.00;93.00
21280;DHT22;11764;43.100;25.716;2022-08-19T12:36:31;34.00;93.10
21280;DHT22;11764;43.100;25.716;2022-08-19T12:38:57;33.50;93.40
21280;DHT22;11764;43.100;25.716;2022-08-19T12:41:23;33.80;93.00
21280;DHT22;11764;43.100;25.716;2022-08-19T12:43:48;33.90;92.10
21280;DHT22;11764;43.100;25.716;2022-08-19T12:46:15;33.90;91.40
21280;DHT22;11764;43.100;25.716;2022-08-19T12:48:40;33.80;91.20
21280;DHT22;11764;43.100;25.716;2022-08-19T12:51:12;34.00;91.10
21280;DHT22;11764;43.100;25.716;2022-08-19T12:53:38;34.00;92.00
21280;DHT22;11764;43.100;25.716;2022-08-19T12:56:03;34.20;92.40
21280;DHT22;11764;43.100;25.716;2022-08-19T12:58:30;34.30;92.10
21280;DHT22;11764;43.100;25.716;2022-08-19T13:00:56;34.20;91.60
21280;DHT22;11764;43.100;25.716;2022-08-19T13:03:21;34.00;92.20
21280;DHT22;11764;43.100;25.716;2022-08-19T13:05:54;33.70;92.00
21280;DHT22;11764;43.100;25.716;2022-08-19T13:08:19;33.30;92.40
21280;DHT22;11764;43.100;25.716;2022-08-19T13:10:45;33.30;92.50
21280;DHT22;11764;43.100;25.716;2022-08-19T13:13:11;33.50;92.40
21280;DHT22;11764;43.100;25.716;2022-08-19T13:15:38;33.80;92.30
21280;DHT22;11764;43.100;25.716;2022-08-19T13:18:08;34.00;92.40
21280;DHT22;11764;43.100;25.716;2022-08-19T13:20:34;34.10;90.90
21280;DHT22;11764;43.100;25.716;2022-08-19T13:23:00;34.20;91.40
21280;DHT22;11764;43.100;25.716;2022-08-19T13:25:26;34.40;90.20
21280;DHT22;11764;43.100;25.716;2022-08-19T13:27:52;34.40;89.00
21280;DHT22;11764;43.100;25.716;2022-08-19T13:30:18;34.40;90.30
21280;DHT22;11764;43.100;25.716;2022-08-19T13:33:03;34.20;90.10
21280;DHT22;11764;43.100;25.716;2022-08-19T13:35:42;34.20;89.10
21280;DHT22;11764;43.100;25.716;2022-08-19T13:38:08;34.50;88.40
21280;DHT22;11764;43.100;25.716;2022-08-19T13:40:35;34.60;89.90
21280;DHT22;11764;43.100;25.716;2022-08-19T13:43:02;34.90;89.30
21280;DHT22;11764;43.100;25.716;2022-08-19T13:45:28;34.90;88.20
21280;DHT22;11764;43.100;25.716;2022-08-19T13:47:56;34.50;87.60
21280;DHT22;11764;43.100;25.716;2022-08-19T13:50:23;34.40;87.40
21280;DHT22;11764;43.100;25.716;2022-08-19T13:52:50;34.30;87.50
21280;DHT22;11764;43.100;25.716;2022-08-19T13:55:16;34.50;87.80
21280;DHT22;11764;43.100;25.716;2022-08-19T13:57:42;34.60;86.80
21280;DHT22;11764;43.100;25.716;2022-08-19T14:00:09;34.60;87.70
21280;DHT22;11764;43.100;25.716;2022-08-19T14:02:36;34.50;87.90
21280;DHT22;11764;43.100;25.716;2022-08-19T14:05:03;34.40;88.30
21280;DHT22;11764;43.100;25.716;2022-08-19T14:07:28;34.60;86.30
21280;DHT22;11764;43.100;25.716;2022-08-19T14:09:54;34.40;87.20
21280;DHT22;11764;43.100;25.716;2022-08-19T14:12:20;34.30;86.40
21280;DHT22;11764;43.100;25.716;2022-08-19T14:14:46;34.30;86.90
21280;DHT22;11764;43.100;25.716;2022-08-19T14:17:12;34.40;85.70
21280;DHT22;11764;43.100;25.716;2022-08-19T14:19:37;34.50;85.30
21280;DHT22;11764;43.100;25.716;2022-08-19T14:22:03;34.30;85.90
21280;DHT22;11764;43.100;25.716;2022-08-19T14:24:29;34.20;85.90
21280;DHT22;11764;43.100;25.716;2022-08-19T14:26:55;34.40;85.10
21280;DHT22;11764;43.100;25.716;2022-08-19T14:29:22;34.60;84.10
21280;DHT22;11764;43.100;25.716;2022-08-19T14:31:48;34.60;84.30
21280;DHT22;11764;43.100;25.716;2022-08-19T14:34:13;34.50;83.80
21280;DHT22;11764;43.100;25.716;2022-08-19T14:36:39;34.80;82.80
21280;DHT22;11764;43.100;25.716;2022-08-19T14:39:04;34.90;81.90
21280;DHT22;11764;43.100;25.716;2022-08-19T14:41:30;35.20;81.30
21280;DHT22;11764;43.100;25.716;2022-08-19T14:43:56;35.80;82.60
21280;DHT22;11764;43.100;25.716;2022-08-19T14:46:23;36.10;80.30
21280;DHT22;11764;43.100;25.716;2022-08-19T14:48:50;36.60;79.70
21280;DHT22;11764;43.100;25.716;2022-08-19T14:51:15;37.20;78.80
21280;DHT22;11764;43.100;25.716;2022-08-19T14:53:41;37.80;76.30
21280;DHT22;11764;43.100;25.716;2022-08-19T14:56:11;38.10;75.20
21280;DHT22;11764;43.100;25.716;2022-08-19T14:58:39;37.50;75.20
21280;DHT22;11764;43.100;25.716;2022-08-19T15:01:06;37.40;74.50
21280;DHT22;11764;43.100;25.716;2022-08-19T15:03:32;36.70;76.20
21280;DHT22;11764;43.100;25.716;2022-08-19T15:05:57;36.70;76.80
21280;DHT22;11764;43.100;25.716;2022-08-19T15:08:24;36.70;76.20
21280;DHT22;11764;43.100;25.716;2022-08-19T15:10:50;37.00;75.70
21280;DHT22;11764;43.100;25.716;2022-08-19T15:13:16;36.90;75.20
21280;DHT22;11764;43.100;25.716;2022-08-19T15:15:42;37.40;74.30
21280;DHT22;11764;43.100;25.716;2022-08-19T15:18:07;37.20;75.00
21280;DHT22;11764;43.100;25.716;2022-08-19T15:20:35;37.10;74.80
21280;DHT22;11764;43.100;25.716;2022-08-19T15:23:01;36.80;74.80